createdAt,value
2023-01-12T00:02:20.961Z,7.90
2023-01-12T00:04:47.804Z,8.00
2023-01-12T00:07:16.018Z,8.10
2023-01-12T00:09:42.840Z,8.10
2023-01-12T00:12:11.824Z,8.10
2023-01-12T00:14:39.534Z,8.10
2023-01-12T00:17:06.756Z,8.20
2023-01-12T00:19:34.006Z,8.20
2023-01-12T00:22:05.813Z,8.30
2023-01-12T00:24:38.514Z,8.30
2023-01-12T00:27:08.322Z,8.30
2023-01-12T00:29:36.033Z,8.30
2023-01-12T00:32:03.331Z,8.30
2023-01-12T00:34:30.083Z,8.40
2023-01-12T00:36:57.570Z,8.40
2023-01-12T00:39:24.266Z,8.30
2023-01-12T00:42:09.474Z,8.40
2023-01-12T00:44:54.946Z,8.40
2023-01-12T00:47:21.693Z,8.40
2023-01-12T00:49:49.085Z,8.50
2023-01-12T00:52:30.018Z,8.50
2023-01-12T00:54:58.297Z,8.40
2023-01-12T00:57:25.205Z,8.40
2023-01-12T00:59:55.109Z,8.40
2023-01-12T01:02:22.722Z,8.30
2023-01-12T01:04:49.901Z,8.20
2023-01-12T01:07:17.216Z,8.30
2023-01-12T01:09:44.367Z,8.40
2023-01-12T01:12:11.123Z,8.40
2023-01-12T01:14:37.845Z,8.50
2023-01-12T01:17:04.706Z,8.60
2023-01-12T01:19:32.724Z,8.40
2023-01-12T01:21:59.539Z,8.40
2023-01-12T01:24:26.369Z,8.40
2023-01-12T01:26:53.025Z,8.40
2023-01-12T01:29:19.797Z,8.40
2023-01-12T01:31:47.741Z,8.40
2023-01-12T01:34:15.130Z,8.40
2023-01-12T01:36:42.691Z,8.40
2023-01-12T01:39:09.505Z,8.30
2023-01-12T01:41:36.190Z,8.20
2023-01-12T01:44:26.257Z,8.10
2023-01-12T01:46:59.266Z,8.10
2023-01-12T01:49:42.845Z,8.00
2023-01-12T01:52:24.429Z,7.90
2023-01-12T01:55:00.881Z,7.90
2023-01-12T01:57:40.194Z,7.90
2023-01-12T02:00:10.342Z,7.90
2023-01-12T02:02:38.461Z,8.00
2023-01-12T02:05:05.876Z,8.00
2023-01-12T02:07:32.974Z,8.00
2023-01-12T02:09:59.731Z,8.00
2023-01-12T02:12:45.093Z,8.10
2023-01-12T02:15:30.285Z,8.10
2023-01-12T02:18:17.943Z,8.10
2023-01-12T02:20:51.595Z,8.20
2023-01-12T02:23:41.087Z,8.20
2023-01-12T02:26:25.884Z,8.10
2023-01-12T02:29:17.317Z,8.00
2023-01-12T02:31:58.971Z,7.90
2023-01-12T02:34:41.584Z,7.90
2023-01-12T02:37:41.592Z,7.80
2023-01-12T02:40:26.942Z,7.80
2023-01-12T02:43:28.613Z,7.80
2023-01-12T02:46:21.458Z,7.90
2023-01-12T02:49:09.774Z,7.90
2023-01-12T02:51:52.000Z,7.90
2023-01-12T02:54:19.688Z,7.90
2023-01-12T02:56:49.540Z,8.00
2023-01-12T02:59:28.866Z,8.00
2023-01-12T03:02:00.594Z,8.10
2023-01-12T03:04:28.144Z,8.10
2023-01-12T03:06:57.918Z,8.10
2023-01-12T03:09:38.462Z,8.10
2023-01-12T03:12:16.907Z,8.10
2023-01-12T03:14:47.769Z,8.10
2023-01-12T03:17:36.379Z,8.10
2023-01-12T03:20:14.642Z,8.20
2023-01-12T03:22:42.332Z,8.10
2023-01-12T03:25:13.495Z,8.10
2023-01-12T03:27:46.103Z,8.10
2023-01-12T03:30:37.549Z,8.10
2023-01-12T03:33:05.267Z,8.20
2023-01-12T03:35:38.071Z,8.20
2023-01-12T03:38:28.373Z,8.20
2023-01-12T03:41:09.385Z,8.20
2023-01-12T03:43:43.867Z,8.20
2023-01-12T03:46:29.213Z,8.10
2023-01-12T03:49:06.196Z,8.10
2023-01-12T03:51:37.814Z,8.10
2023-01-12T03:54:07.990Z,8.10
2023-01-12T03:56:36.261Z,8.10
2023-01-12T03:59:04.652Z,8.10
2023-01-12T04:01:32.119Z,8.10
2023-01-12T04:03:58.821Z,8.10
2023-01-12T04:06:25.558Z,8.10
2023-01-12T04:08:52.254Z,8.10
2023-01-12T04:11:37.436Z,8.10
2023-01-12T04:14:04.137Z,8.10
2023-01-12T04:16:30.929Z,8.20
2023-01-12T04:18:57.748Z,8.20
2023-01-12T04:21:43.245Z,8.20
2023-01-12T04:24:09.936Z,8.20
2023-01-12T04:26:36.579Z,8.20
2023-01-12T04:29:03.302Z,8.20
2023-01-12T04:31:30.020Z,8.20
2023-01-12T04:33:56.714Z,8.20
2023-01-12T04:36:23.391Z,8.20
2023-01-12T04:38:50.040Z,8.20
2023-01-12T04:41:16.708Z,8.20
2023-01-12T04:43:43.425Z,8.20
2023-01-12T04:46:10.574Z,8.20
2023-01-12T04:48:43.539Z,8.20
2023-01-12T04:51:10.285Z,8.20
2023-01-12T04:53:37.034Z,8.20
2023-01-12T04:56:05.331Z,8.30
2023-01-12T04:58:32.363Z,8.30
2023-01-12T05:01:07.537Z,8.20
2023-01-12T05:03:34.273Z,8.20
2023-01-12T05:06:02.494Z,8.30
2023-01-12T05:08:48.047Z,8.30
2023-01-12T05:11:15.018Z,8.30
2023-01-12T05:13:41.912Z,8.30
2023-01-12T05:16:15.436Z,8.30
2023-01-12T05:18:43.981Z,8.30
2023-01-12T05:21:13.988Z,8.30
2023-01-12T05:23:40.752Z,8.30
2023-01-12T05:26:07.907Z,8.30
2023-01-12T05:28:34.623Z,8.30
2023-01-12T05:31:13.378Z,8.30
2023-01-12T05:33:41.628Z,8.20
2023-01-12T05:36:11.090Z,8.20
2023-01-12T05:38:37.780Z,8.20
2023-01-12T05:41:07.192Z,8.20
2023-01-12T05:43:52.111Z,8.20
2023-01-12T05:46:22.899Z,8.20
2023-01-12T05:48:50.258Z,8.20
2023-01-12T05:51:18.043Z,8.20
2023-01-12T05:53:45.231Z,8.20
2023-01-12T05:56:28.067Z,8.20
2023-01-12T05:58:58.541Z,8.30
2023-01-12T06:01:26.353Z,8.30
2023-01-12T06:03:55.023Z,8.30
2023-01-12T06:06:24.144Z,8.30
2023-01-12T06:08:52.725Z,8.20
2023-01-12T06:11:38.862Z,8.20
2023-01-12T06:14:06.230Z,8.30
2023-01-12T06:16:32.920Z,8.30
2023-01-12T06:18:59.592Z,8.30
2023-01-12T06:21:26.296Z,8.30
2023-01-12T06:23:52.949Z,8.30
2023-01-12T06:26:19.733Z,8.30
2023-01-12T06:28:46.534Z,8.30
2023-01-12T06:31:14.666Z,8.20
2023-01-12T06:33:43.141Z,8.20
2023-01-12T06:36:10.807Z,8.20
2023-01-12T06:38:37.811Z,8.20
2023-01-12T06:41:30.709Z,8.20
2023-01-12T06:43:57.729Z,8.20
2023-01-12T06:46:26.127Z,8.10
2023-01-12T06:48:55.462Z,8.20
2023-01-12T06:51:22.174Z,8.20
2023-01-12T06:53:48.929Z,8.20
2023-01-12T06:56:15.830Z,8.10
2023-01-12T06:58:43.376Z,8.10
2023-01-12T07:01:10.573Z,8.10
2023-01-12T07:03:37.321Z,8.10
2023-01-12T07:06:04.184Z,8.00
2023-01-12T07:08:32.467Z,8.00
2023-01-12T07:11:04.069Z,8.00
2023-01-12T07:13:31.696Z,8.00
2023-01-12T07:16:00.020Z,8.00
2023-01-12T07:18:27.650Z,7.90
2023-01-12T07:20:54.377Z,8.00
2023-01-12T07:23:21.150Z,8.00
2023-01-12T07:25:47.834Z,8.00
2023-01-12T07:28:14.893Z,8.00
2023-01-12T07:30:41.649Z,7.80
2023-01-12T07:33:10.501Z,8.00
2023-01-12T07:35:37.273Z,7.90
2023-01-12T07:38:04.420Z,7.90
2023-01-12T07:40:31.125Z,7.90
2023-01-12T07:43:02.671Z,7.90
2023-01-12T07:45:30.377Z,7.80
2023-01-12T07:47:57.559Z,7.90
2023-01-12T07:50:26.435Z,7.80
2023-01-12T07:52:53.275Z,7.80
2023-01-12T07:55:20.554Z,7.80
2023-01-12T07:58:03.758Z,7.80
2023-01-12T08:00:31.185Z,7.80
2023-01-12T08:03:11.029Z,7.80
2023-01-12T08:05:39.128Z,7.80
2023-01-12T08:08:07.082Z,7.80
2023-01-12T08:10:33.925Z,7.80
2023-01-12T08:13:00.674Z,7.80
2023-01-12T08:15:33.513Z,7.90
2023-01-12T08:18:06.069Z,7.90
2023-01-12T08:20:35.905Z,7.80
2023-01-12T08:23:16.896Z,7.80
2023-01-12T08:25:49.085Z,7.80
2023-01-12T08:28:24.955Z,7.80
2023-01-12T08:30:52.280Z,7.80
2023-01-12T08:33:19.721Z,7.80
2023-01-12T08:35:47.270Z,7.80
2023-01-12T08:38:14.255Z,7.80
2023-01-12T08:40:59.574Z,7.90
2023-01-12T08:43:45.084Z,7.80
2023-01-12T08:46:12.078Z,7.80
2023-01-12T08:48:39.428Z,7.90
2023-01-12T08:51:08.037Z,7.90
2023-01-12T08:53:34.976Z,7.90
2023-01-12T08:56:01.644Z,7.90
2023-01-12T08:58:28.637Z,7.90
2023-01-12T09:00:55.550Z,8.00
2023-01-12T09:03:22.393Z,8.00
2023-01-12T09:05:49.151Z,8.00
2023-01-12T09:08:15.815Z,8.10
2023-01-12T09:10:42.461Z,8.10
2023-01-12T09:13:11.815Z,8.10
2023-01-12T09:15:38.478Z,8.10
2023-01-12T09:18:05.155Z,8.10
2023-01-12T09:20:33.509Z,8.10
2023-01-12T09:23:04.054Z,8.20
2023-01-12T09:25:30.712Z,8.20
2023-01-12T09:27:57.976Z,8.20
2023-01-12T09:30:24.622Z,8.30
2023-01-12T09:32:51.315Z,8.30
2023-01-12T09:35:19.817Z,8.30
2023-01-12T09:37:46.469Z,8.40
2023-01-12T09:40:17.411Z,8.40
2023-01-12T09:43:10.534Z,8.50
2023-01-12T09:45:55.975Z,8.50
2023-01-12T09:48:24.118Z,8.50
2023-01-12T09:50:55.872Z,8.50
2023-01-12T09:53:31.242Z,8.60
2023-01-12T09:56:16.583Z,8.60
2023-01-12T09:58:59.540Z,8.70
2023-01-12T10:01:29.594Z,8.70
2023-01-12T10:03:59.814Z,8.80
2023-01-12T10:06:26.589Z,8.80
2023-01-12T10:09:02.792Z,8.80
2023-01-12T10:11:51.147Z,8.80
2023-01-12T10:14:26.727Z,8.90
2023-01-12T10:17:23.992Z,8.90
2023-01-12T10:20:20.038Z,9.00
2023-01-12T10:22:54.529Z,9.00
2023-01-12T10:25:39.859Z,9.10
2023-01-12T10:28:22.947Z,9.10
2023-01-12T10:30:50.123Z,9.10
2023-01-12T10:33:20.978Z,9.10
2023-01-12T10:36:16.731Z,9.10
2023-01-12T10:38:56.697Z,9.20
2023-01-12T10:41:28.240Z,9.20
2023-01-12T10:43:54.924Z,9.30
2023-01-12T10:46:24.158Z,9.40
2023-01-12T10:48:54.924Z,9.40
2023-01-12T10:51:30.157Z,9.40
2023-01-12T10:54:03.217Z,9.50
2023-01-12T10:56:52.759Z,9.50
2023-01-12T10:59:21.912Z,9.60
2023-01-12T11:01:53.188Z,9.60
2023-01-12T11:04:22.613Z,9.60
2023-01-12T11:07:04.993Z,9.70
2023-01-12T11:09:32.070Z,9.70
2023-01-12T11:12:02.000Z,9.80
2023-01-12T11:14:38.026Z,9.80
2023-01-12T11:17:36.966Z,9.80
2023-01-12T11:20:15.166Z,9.80
2023-01-12T11:22:44.317Z,9.80
2023-01-12T11:25:17.533Z,9.80
2023-01-12T11:27:49.075Z,9.80
2023-01-12T11:30:25.838Z,9.80
2023-01-12T11:33:10.218Z,9.80
2023-01-12T11:35:41.592Z,9.80
2023-01-12T11:38:22.944Z,9.70
2023-01-12T11:40:49.922Z,9.70
2023-01-12T11:43:47.341Z,9.70
2023-01-12T11:46:36.313Z,9.70
2023-01-12T11:49:22.876Z,9.70
2023-01-12T11:51:53.432Z,9.70
2023-01-12T11:54:20.217Z,9.70
2023-01-12T11:56:49.933Z,9.70
2023-01-12T11:59:43.222Z,9.70
2023-01-12T12:02:38.667Z,9.80
2023-01-12T12:05:26.658Z,9.80
2023-01-12T12:08:21.458Z,9.80
2023-01-12T12:10:52.209Z,9.80
2023-01-12T12:13:36.767Z,9.90
2023-01-12T12:16:28.499Z,9.90
2023-01-12T12:19:27.147Z,9.90
2023-01-12T12:22:08.883Z,9.90
2023-01-12T12:24:54.526Z,10.00
2023-01-12T12:27:49.552Z,10.00
2023-01-12T12:30:28.138Z,10.00
2023-01-12T12:33:24.829Z,10.10
2023-01-12T12:36:17.241Z,10.00
2023-01-12T12:38:43.959Z,10.10
2023-01-12T12:41:51.133Z,10.10
2023-01-12T12:44:48.636Z,10.10
2023-01-12T12:47:44.321Z,10.10
2023-01-12T12:50:24.295Z,10.10
2023-01-12T12:53:14.315Z,10.10
2023-01-12T12:55:42.157Z,10.10
2023-01-12T12:58:21.196Z,10.10
2023-01-12T13:00:49.963Z,10.10
2023-01-12T13:03:46.329Z,10.20
2023-01-12T13:06:24.560Z,10.20
2023-01-12T13:09:02.072Z,10.20
2023-01-12T13:11:56.182Z,10.20
2023-01-12T13:14:38.010Z,10.20
2023-01-12T13:17:19.819Z,10.20
2023-01-12T13:20:24.009Z,10.20
2023-01-12T13:22:52.045Z,10.20
2023-01-12T13:25:27.090Z,10.30
2023-01-12T13:28:00.388Z,10.20
2023-01-12T13:30:30.043Z,10.20
2023-01-12T13:33:15.345Z,10.20
2023-01-12T13:35:44.988Z,10.20
2023-01-12T13:38:38.621Z,10.20
2023-01-12T13:41:14.540Z,10.20
2023-01-12T13:43:53.509Z,10.20
2023-01-12T13:46:24.999Z,10.20
2023-01-12T13:48:54.076Z,10.20
2023-01-12T13:51:39.717Z,10.20
2023-01-12T13:54:12.471Z,10.20
2023-01-12T13:56:39.448Z,10.20
2023-01-12T13:59:14.668Z,10.20
2023-01-12T14:01:41.559Z,10.20
2023-01-12T14:04:19.959Z,10.20
2023-01-12T14:07:06.653Z,10.20
2023-01-12T14:10:14.936Z,10.20
2023-01-12T14:13:06.344Z,10.20
2023-01-12T14:15:57.825Z,10.20
2023-01-12T14:18:27.340Z,10.20
2023-01-12T14:20:59.427Z,10.20
2023-01-12T14:23:35.509Z,10.20
2023-01-12T14:26:14.033Z,10.20
2023-01-12T14:28:46.578Z,10.20
2023-01-12T14:31:19.032Z,10.20
2023-01-12T14:33:55.262Z,10.20
2023-01-12T14:36:42.757Z,10.10
2023-01-12T14:39:16.849Z,10.20
2023-01-12T14:42:06.712Z,10.20
2023-01-12T14:44:55.084Z,10.20
2023-01-12T14:47:28.401Z,10.20
2023-01-12T14:49:55.366Z,10.20
2023-01-12T14:52:31.318Z,10.20
2023-01-12T14:55:37.827Z,10.20
2023-01-12T14:58:06.149Z,10.10
2023-01-12T15:00:35.462Z,10.10
2023-01-12T15:03:07.885Z,10.10
2023-01-12T15:05:36.732Z,10.10
2023-01-12T15:08:30.999Z,10.10
2023-01-12T15:11:08.664Z,10.10
2023-01-12T15:13:37.299Z,10.10
2023-01-12T15:16:23.958Z,10.10
2023-01-12T15:19:09.911Z,10.10
2023-01-12T15:21:56.903Z,10.10
2023-01-12T15:24:43.061Z,10.10
2023-01-12T15:27:12.505Z,10.10
2023-01-12T15:29:39.349Z,10.10
2023-01-12T15:32:20.124Z,10.10
2023-01-12T15:34:47.335Z,10.00
2023-01-12T15:37:16.622Z,10.10
2023-01-12T15:39:43.323Z,10.10
2023-01-12T15:42:17.936Z,10.10
2023-01-12T15:44:45.293Z,10.10
2023-01-12T15:47:13.977Z,10.10
2023-01-12T15:49:48.682Z,10.10
2023-01-12T15:52:21.262Z,10.10
2023-01-12T15:54:48.259Z,10.00
2023-01-12T15:57:15.602Z,10.00
2023-01-12T15:59:42.694Z,10.10
2023-01-12T16:02:34.865Z,10.10
2023-01-12T16:05:05.902Z,10.10
2023-01-12T16:07:32.608Z,10.10
2023-01-12T16:09:59.361Z,10.10
2023-01-12T16:12:26.171Z,10.10
2023-01-12T16:14:53.112Z,10.10
2023-01-12T16:17:19.819Z,10.10
2023-01-12T16:19:46.539Z,10.10
2023-01-12T16:22:22.753Z,10.20
2023-01-12T16:24:51.900Z,10.20
2023-01-12T16:27:20.750Z,10.20
2023-01-12T16:29:47.567Z,10.10
2023-01-12T16:32:15.065Z,10.10
2023-01-12T16:34:42.525Z,10.10
2023-01-12T16:37:13.758Z,10.10
2023-01-12T16:39:41.465Z,10.10
2023-01-12T16:42:08.763Z,10.10
2023-01-12T16:44:37.701Z,10.10
2023-01-12T16:47:05.420Z,10.10
2023-01-12T16:49:35.932Z,10.00
2023-01-12T16:52:04.135Z,10.10
2023-01-12T16:54:31.022Z,10.10
2023-01-12T16:56:58.894Z,10.00
2023-01-12T16:59:28.459Z,10.00
2023-01-12T17:01:55.612Z,10.00
2023-01-12T17:04:23.233Z,10.00
2023-01-12T17:06:50.054Z,10.00
2023-01-12T17:09:17.860Z,10.10
2023-01-12T17:11:44.858Z,10.10
2023-01-12T17:14:25.048Z,10.00
2023-01-12T17:16:57.467Z,10.00
2023-01-12T17:19:27.155Z,10.10
2023-01-12T17:21:58.045Z,10.00
2023-01-12T17:24:25.504Z,10.00
2023-01-12T17:26:53.722Z,10.00
2023-01-12T17:29:21.774Z,10.00
2023-01-12T17:31:49.560Z,9.90
2023-01-12T17:34:16.497Z,10.00
2023-01-12T17:36:43.589Z,9.90
2023-01-12T17:39:10.699Z,9.90
2023-01-12T17:41:55.956Z,9.90
2023-01-12T17:44:22.706Z,9.90
2023-01-12T17:46:49.500Z,9.90
2023-01-12T17:49:16.364Z,10.00
2023-01-12T17:51:43.341Z,10.00
2023-01-12T17:54:12.652Z,10.00
2023-01-12T17:56:39.422Z,10.00
2023-01-12T17:59:06.533Z,9.90
2023-01-12T18:01:36.078Z,10.00
2023-01-12T18:04:03.556Z,10.00
2023-01-12T18:06:30.884Z,10.00
2023-01-12T18:08:59.528Z,10.00
2023-01-12T18:11:27.374Z,10.00
2023-01-12T18:13:55.073Z,9.90
2023-01-12T18:16:22.183Z,9.90
2023-01-12T18:18:49.655Z,9.90
2023-01-12T18:21:20.588Z,9.90
2023-01-12T18:23:48.739Z,9.90
2023-01-12T18:26:18.830Z,10.00
2023-01-12T18:28:45.863Z,10.00
2023-01-12T18:31:24.339Z,9.90
2023-01-12T18:33:54.755Z,9.90
2023-01-12T18:36:24.030Z,9.90
2023-01-12T18:38:52.534Z,9.90
2023-01-12T18:41:39.042Z,9.90
2023-01-12T18:44:06.824Z,10.00
2023-01-12T18:46:53.409Z,9.90
2023-01-12T18:49:24.725Z,9.90
2023-01-12T18:52:10.606Z,9.90
2023-01-12T18:54:47.926Z,9.90
2023-01-12T18:57:19.270Z,9.90
2023-01-12T18:59:47.162Z,10.00
2023-01-12T19:02:15.226Z,10.00
2023-01-12T19:05:02.703Z,9.90
2023-01-12T19:07:49.603Z,9.90
2023-01-12T19:10:16.573Z,9.90
2023-01-12T19:12:46.168Z,9.90
2023-01-12T19:15:32.023Z,9.90
2023-01-12T19:17:58.695Z,10.00
2023-01-12T19:20:31.679Z,10.00
2023-01-12T19:23:17.004Z,9.90
2023-01-12T19:26:02.193Z,9.90
2023-01-12T19:28:39.065Z,9.90
2023-01-12T19:31:10.928Z,9.90
2023-01-12T19:33:38.910Z,10.00
2023-01-12T19:36:08.342Z,9.90
2023-01-12T19:38:38.725Z,9.90
2023-01-12T19:41:33.780Z,10.00
2023-01-12T19:44:05.130Z,10.00
2023-01-12T19:46:33.115Z,9.90
2023-01-12T19:49:00.027Z,9.90
2023-01-12T19:51:26.944Z,9.90
2023-01-12T19:53:53.698Z,9.90
2023-01-12T19:56:20.444Z,9.90
2023-01-12T19:58:47.177Z,9.90
2023-01-12T20:01:21.582Z,9.90
2023-01-12T20:03:50.410Z,9.90
2023-01-12T20:06:17.497Z,9.90
2023-01-12T20:08:44.258Z,9.80
2023-01-12T20:11:11.119Z,9.90
2023-01-12T20:13:38.053Z,9.90
2023-01-12T20:16:09.832Z,9.90
2023-01-12T20:18:36.644Z,9.90
2023-01-12T20:21:08.233Z,9.90
2023-01-12T20:23:35.178Z,10.00
2023-01-12T20:26:05.000Z,9.90
2023-01-12T20:28:31.636Z,10.00
2023-01-12T20:31:01.413Z,9.90
2023-01-12T20:33:28.333Z,9.90
2023-01-12T20:35:55.163Z,9.90
2023-01-12T20:38:22.614Z,10.00
2023-01-12T20:40:50.238Z,10.00
2023-01-12T20:43:16.952Z,9.90
2023-01-12T20:45:44.203Z,9.90
2023-01-12T20:48:13.707Z,9.90
2023-01-12T20:50:44.992Z,9.90
2023-01-12T20:53:13.728Z,10.00
2023-01-12T20:55:50.517Z,10.10
2023-01-12T20:58:17.761Z,10.00
2023-01-12T21:00:44.978Z,10.00
2023-01-12T21:03:11.709Z,10.00
2023-01-12T21:05:44.449Z,10.00
2023-01-12T21:08:11.677Z,10.00
2023-01-12T21:10:39.753Z,10.00
2023-01-12T21:13:07.676Z,10.00
2023-01-12T21:15:34.480Z,10.00
2023-01-12T21:18:01.194Z,10.00
2023-01-12T21:20:28.114Z,10.00
2023-01-12T21:22:55.016Z,10.00
2023-01-12T21:25:22.507Z,10.00
2023-01-12T21:27:49.162Z,10.00
2023-01-12T21:30:16.168Z,10.00
2023-01-12T21:32:43.910Z,10.00
2023-01-12T21:35:10.837Z,10.00
2023-01-12T21:37:37.572Z,10.00
2023-01-12T21:40:04.883Z,10.00
2023-01-12T21:42:50.296Z,10.00
2023-01-12T21:45:17.224Z,10.00
2023-01-12T21:47:46.222Z,10.10
2023-01-12T21:50:12.954Z,10.00
2023-01-12T21:52:41.356Z,10.00
2023-01-12T21:55:12.499Z,10.00
2023-01-12T21:57:43.339Z,10.00
2023-01-12T22:00:32.001Z,10.00
2023-01-12T22:03:01.417Z,10.00
2023-01-12T22:05:28.265Z,10.00
2023-01-12T22:07:55.252Z,10.00
2023-01-12T22:10:23.371Z,10.10
2023-01-12T22:12:52.524Z,10.10
2023-01-12T22:15:19.613Z,10.10
2023-01-12T22:17:46.561Z,10.10
2023-01-12T22:20:14.525Z,10.10
2023-01-12T22:22:42.735Z,10.10
2023-01-12T22:25:11.580Z,10.10
2023-01-12T22:27:38.958Z,10.10
2023-01-12T22:30:06.817Z,10.10
2023-01-12T22:32:33.489Z,10.10
2023-01-12T22:35:00.371Z,10.10
2023-01-12T22:37:30.912Z,10.20
2023-01-12T22:40:01.416Z,10.20
2023-01-12T22:42:48.223Z,10.10
2023-01-12T22:45:15.066Z,10.10
2023-01-12T22:47:48.064Z,10.10
2023-01-12T22:50:21.351Z,10.10
2023-01-12T22:52:52.593Z,10.20
2023-01-12T22:55:21.250Z,10.00
2023-01-12T22:57:48.433Z,10.00
2023-01-12T23:00:18.381Z,10.00
2023-01-12T23:03:01.212Z,10.00
2023-01-12T23:05:56.572Z,10.00
2023-01-12T23:08:24.203Z,10.00
2023-01-12T23:10:51.559Z,10.00
2023-01-12T23:13:21.453Z,10.10
2023-01-12T23:15:55.696Z,10.10
2023-01-12T23:18:29.695Z,10.10
2023-01-12T23:21:02.560Z,10.10
2023-01-12T23:23:31.231Z,10.10
2023-01-12T23:26:06.463Z,10.10
2023-01-12T23:28:36.916Z,10.10
2023-01-12T23:31:06.243Z,10.20
2023-01-12T23:33:33.409Z,10.10
2023-01-12T23:36:11.581Z,10.30
2023-01-12T23:38:38.393Z,10.30
2023-01-12T23:41:19.921Z,10.30
2023-01-12T23:43:48.387Z,10.20
2023-01-12T23:46:20.208Z,10.10
2023-01-12T23:48:47.200Z,10.10
2023-01-12T23:51:14.180Z,10.10
2023-01-12T23:53:41.587Z,10.10
2023-01-12T23:56:11.191Z,10.10
2023-01-12T23:58:38.195Z,10.00
